Time;durP1;ratioP1;P1;durP2;ratioP2;P2;SDS_P1;SDS_P2;PMS_P1;PMS_P2;Temp;Humidity;BMP_temperature;BMP_pressure;BME280_temperature;BME280_humidity;BME280_pressure;Samples;Min_cycle;Max_cycle;Signal;HPM_P1;HPM_P2
2021/04/27 00:01:13;;;;;;;11.55;5.55;;;;;;;8.04;40.49;95779.09;5015573;28;20037;-61
2021/04/27 00:03:38;;;;;;;14.60;6.07;;;;;;;8.21;39.24;95775.78;5018972;28;20037;-62
2021/04/27 00:06:04;;;;;;;12.55;5.47;;;;;;;8.07;39.42;95777.53;5018324;28;20145;-60
2021/04/27 00:08:30;;;;;;;15.07;5.82;;;;;;;8.11;39.32;95783.84;5022755;28;20049;-62
2021/04/27 00:10:56;;;;;;;9.90;5.72;;;;;;;8.06;40.10;95773.25;5021882;28;20049;-64
2021/04/27 00:13:21;;;;;;;11.95;6.15;;;;;;;7.92;40.00;95774.66;5008713;28;20033;-64
2021/04/27 00:15:47;;;;;;;11.38;5.78;;;;;;;7.84;40.29;95771.06;5021551;28;20381;-62
2021/04/27 00:18:12;;;;;;;10.70;5.45;;;;;;;7.89;40.13;95775.41;5017783;28;20041;-64
2021/04/27 00:20:38;;;;;;;10.07;5.47;;;;;;;7.84;40.43;95767.56;5014465;28;20045;-62
2021/04/27 00:23:03;;;;;;;11.13;6.20;;;;;;;7.84;40.78;95765.63;5010764;28;20045;-60
2021/04/27 00:25:29;;;;;;;12.18;6.30;;;;;;;7.81;40.30;95760.91;5020456;28;20042;-63
2021/04/27 00:27:55;;;;;;;9.88;6.05;;;;;;;7.80;40.61;95759.34;5021534;28;20040;-61
2021/04/27 00:30:23;;;;;;;20.85;5.88;;;;;;;7.68;41.01;95754.13;5010396;28;20403;-64
2021/04/27 00:32:50;;;;;;;14.35;5.35;;;;;;;7.70;40.91;95759.22;5022408;28;20037;-62
2021/04/27 00:35:16;;;;;;;12.35;5.60;;;;;;;7.70;40.94;95762.72;5009965;28;20128;-63
2021/04/27 00:37:41;;;;;;;11.40;6.65;;;;;;;7.52;41.20;95743.41;5002068;28;20053;-62
2021/04/27 00:40:09;;;;;;;8.82;5.53;;;;;;;7.52;41.65;95743.41;5012278;28;20037;-61
2021/04/27 00:42:39;;;;;;;8.10;5.55;;;;;;;7.45;41.66;95744.13;5025163;28;20072;-62
2021/04/27 00:45:07;;;;;;;13.15;5.50;;;;;;;7.36;41.60;95743.59;5017061;28;20049;-60
2021/04/27 00:47:32;;;;;;;11.60;5.82;;;;;;;7.27;42.33;95751.25;5009338;28;20078;-63
2021/04/27 00:49:57;;;;;;;13.00;5.57;;;;;;;7.25;42.04;95751.63;5018832;28;20776;-62
2021/04/27 00:52:24;;;;;;;9.77;6.20;;;;;;;7.25;41.92;95739.94;5005213;28;20049;-63
2021/04/27 00:54:51;;;;;;;13.65;5.97;;;;;;;7.27;42.11;95743.88;5019542;28;20069;-62
2021/04/27 00:57:18;;;;;;;9.73;5.60;;;;;;;7.23;42.57;95753.16;5015599;28;20400;-64
2021/04/27 00:59:43;;;;;;;16.17;6.50;;;;;;;7.22;42.53;95746.13;5020627;28;20093;-64
2021/04/27 01:02:08;;;;;;;12.05;4.97;;;;;;;7.16;42.22;95753.81;5016469;28;20072;-62
2021/04/27 01:04:34;;;;;;;12.40;5.57;;;;;;;7.18;42.54;95756.19;5019076;28;20639;-65
2021/04/27 01:07:00;;;;;;;8.70;5.45;;;;;;;7.11;42.58;95756.09;5020128;28;20041;-61
2021/04/27 01:09:41;;;;;;;11.75;6.57;;;;;;;7.07;42.87;95758.75;5016053;28;20072;-62
2021/04/27 01:12:32;;;;;;;12.85;6.95;;;;;;;7.04;42.73;95751.31;5015731;28;20033;-62
2021/04/27 01:15:07;;;;;;;10.10;6.00;;;;;;;7.06;42.45;95749.03;5014975;28;20136;-63
2021/04/27 01:17:33;;;;;;;10.40;5.78;;;;;;;6.94;43.25;95750.00;4987378;28;20088;-63
2021/04/27 01:20:06;;;;;;;12.65;5.65;;;;;;;6.82;43.90;95744.75;5005448;28;20400;-61
2021/04/27 01:22:43;;;;;;;12.23;6.18;;;;;;;6.85;43.45;95735.88;5005587;28;20046;-62
2021/04/27 01:25:12;;;;;;;9.23;5.47;;;;;;;6.87;43.54;95730.84;4990251;28;20049;-61
2021/04/27 01:27:37;;;;;;;13.07;5.68;;;;;;;6.73;44.20;95734.13;4986397;28;20754;-62
2021/04/27 01:30:04;;;;;;;10.68;5.70;;;;;;;6.73;43.82;95739.56;4983327;28;20076;-60
2021/04/27 01:32:30;;;;;;;9.95;6.07;;;;;;;6.75;43.76;95737.25;4986663;28;20041;-64
2021/04/27 01:34:57;;;;;;;12.32;6.10;;;;;;;6.78;43.85;95716.72;5003707;28;20072;-62
2021/04/27 01:37:23;;;;;;;12.40;6.72;;;;;;;6.74;43.87;95721.31;4989639;28;20517;-63
2021/04/27 01:39:49;;;;;;;14.13;5.63;;;;;;;6.71;44.28;95725.56;5004692;28;20066;-63
2021/04/27 01:42:15;;;;;;;12.60;5.75;;;;;;;6.71;43.89;95717.38;4991151;28;20041;-62
2021/04/27 01:44:43;;;;;;;8.25;5.30;;;;;;;6.65;44.33;95710.69;5003322;28;20069;-63
2021/04/27 01:47:09;;;;;;;10.05;5.68;;;;;;;6.63;44.08;95708.34;4993855;28;20095;-62
2021/04/27 01:49:38;;;;;;;9.85;4.95;;;;;;;6.60;44.88;95713.72;5004403;28;20128;-63
2021/04/27 01:52:04;;;;;;;8.80;5.15;;;;;;;6.51;45.26;95720.19;5001817;28;20048;-61
2021/04/27 01:54:30;;;;;;;8.80;4.95;;;;;;;6.47;45.45;95715.84;5004660;28;20393;-62
2021/04/27 01:56:56;;;;;;;12.30;6.13;;;;;;;6.53;44.67;95716.31;4995477;28;20065;-62
2021/04/27 01:59:23;;;;;;;12.18;6.15;;;;;;;6.54;44.42;95710.53;5000700;28;20686;-62
2021/04/27 02:01:49;;;;;;;13.48;5.68;;;;;;;6.47;44.96;95719.34;5006598;28;20076;-62
2021/04/27 02:04:28;;;;;;;14.10;6.07;;;;;;;6.46;44.93;95719.72;5001109;28;20038;-62
2021/04/27 02:06:54;;;;;;;10.70;5.80;;;;;;;6.43;44.83;95715.78;4984460;28;20532;-61
2021/04/27 02:09:25;;;;;;;9.60;5.60;;;;;;;6.37;45.22;95714.50;4979313;28;20042;-63
2021/04/27 02:11:52;;;;;;;9.82;5.75;;;;;;;6.29;45.69;95708.16;4990924;28;20038;-63
2021/04/27 02:14:29;;;;;;;10.75;5.18;;;;;;;6.28;45.49;95709.34;4998809;28;20125;-62
2021/04/27 02:16:56;;;;;;;11.18;6.05;;;;;;;6.19;45.96;95714.19;4999362;28;20081;-64
2021/04/27 02:19:25;;;;;;;9.93;5.28;;;;;;;6.23;45.57;95715.06;4992422;28;20054;-62
2021/04/27 02:21:55;;;;;;;10.18;5.57;;;;;;;6.18;45.56;95699.06;4999604;28;20493;-63
2021/04/27 02:24:23;;;;;;;13.98;6.10;;;;;;;6.14;45.92;95717.25;4984711;28;20405;-64
2021/04/27 02:26:52;;;;;;;12.50;5.03;;;;;;;6.07;45.99;95709.75;4993584;28;20042;-63
2021/04/27 02:29:18;;;;;;;15.25;5.80;;;;;;;6.02;46.59;95722.84;4997023;28;20093;-63
2021/04/27 02:31:44;;;;;;;12.45;5.82;;;;;;;6.02;46.20;95718.19;5000442;28;20091;-63
2021/04/27 02:34:11;;;;;;;11.80;6.57;;;;;;;5.91;46.58;95717.97;4995976;28;20050;-63
2021/04/27 02:36:39;;;;;;;11.23;5.15;;;;;;;5.95;46.25;95718.03;5005053;28;20070;-64
2021/04/27 02:39:09;;;;;;;16.00;4.53;;;;;;;6.06;45.81;95708.16;5008436;28;20042;-62
2021/04/27 02:41:36;;;;;;;10.07;5.30;;;;;;;5.93;46.43;95720.31;4991214;28;20042;-64
2021/04/27 02:44:04;;;;;;;9.60;6.10;;;;;;;5.90;46.15;95710.94;4984388;28;20050;-62
2021/04/27 02:46:29;;;;;;;9.40;5.70;;;;;;;5.86;46.47;95718.25;4994060;28;20358;-63
2021/04/27 02:48:55;;;;;;;10.45;5.60;;;;;;;5.79;46.74;95706.47;5001937;28;20046;-64
2021/04/27 02:51:21;;;;;;;10.52;6.00;;;;;;;5.85;46.11;95710.47;4997187;28;20123;-62
2021/04/27 02:53:47;;;;;;;8.70;5.45;;;;;;;5.79;46.53;95704.53;5006649;28;20054;-64
2021/04/27 02:56:12;;;;;;;9.30;4.95;;;;;;;5.71;47.02;95702.84;5002197;28;20128;-64
2021/04/27 02:58:38;;;;;;;11.32;5.10;;;;;;;5.64;46.89;95708.91;5003770;28;20134;-64
2021/04/27 03:01:03;;;;;;;10.88;4.72;;;;;;;5.62;47.15;95688.66;4998726;28;20041;-60
2021/04/27 03:03:29;;;;;;;9.13;4.85;;;;;;;5.67;46.86;95697.34;4992202;28;20457;-61
2021/04/27 03:05:55;;;;;;;9.27;5.13;;;;;;;5.57;47.04;95697.91;5001044;28;20057;-65
2021/04/27 03:08:20;;;;;;;11.82;5.32;;;;;;;5.52;47.29;95698.19;4994118;28;20046;-61
2021/04/27 03:10:46;;;;;;;10.15;6.28;;;;;;;5.48;47.19;95695.41;5000652;28;20046;-62
2021/04/27 03:13:12;;;;;;;10.63;4.57;;;;;;;5.50;47.14;95700.50;4990777;28;20046;-63
2021/04/27 03:15:37;;;;;;;10.38;5.05;;;;;;;5.58;46.98;95694.03;5000899;28;20054;-61
2021/04/27 03:18:03;;;;;;;9.85;4.78;;;;;;;5.52;47.02;95706.34;4998379;28;20045;-61
2021/04/27 03:20:29;;;;;;;8.48;4.55;;;;;;;5.65;46.46;95704.25;5000955;28;20053;-63
2021/04/27 03:22:55;;;;;;;8.00;4.72;;;;;;;5.55;46.89;95694.78;5000158;28;20425;-63
2021/04/27 03:25:21;;;;;;;11.43;4.78;;;;;;;5.44;46.85;95699.19;4995722;28;20096;-63
2021/04/27 03:27:46;;;;;;;10.25;4.97;;;;;;;5.42;47.46;95696.84;5002952;28;20528;-63
2021/04/27 03:30:13;;;;;;;10.88;5.75;;;;;;;5.34;47.52;95695.91;4990466;28;20042;-68
2021/04/27 03:32:39;;;;;;;11.43;4.75;;;;;;;5.29;47.66;95698.91;4998813;28;20189;-64
2021/04/27 03:35:07;;;;;;;7.55;4.65;;;;;;;5.21;47.81;95689.06;4981262;28;20054;-62
2021/04/27 03:37:33;;;;;;;11.40;5.63;;;;;;;5.15;48.10;95683.13;4985535;28;20396;-64
2021/04/27 03:39:59;;;;;;;8.25;4.20;;;;;;;5.05;48.48;95699.19;4989359;28;20038;-62
2021/04/27 03:42:24;;;;;;;12.45;5.43;;;;;;;5.08;48.25;95682.97;4996722;28;20034;-63
2021/04/27 03:44:50;;;;;;;10.27;5.07;;;;;;;5.06;48.67;95692.59;4997004;28;20070;-62
2021/04/27 03:47:15;;;;;;;8.98;5.10;;;;;;;4.95;48.84;95697.78;4982138;28;20438;-63
2021/04/27 03:49:41;;;;;;;9.80;4.78;;;;;;;4.94;48.66;95691.59;4997235;28;20044;-63
2021/04/27 03:52:06;;;;;;;11.85;4.93;;;;;;;4.88;49.27;95700.34;4995478;28;20881;-64
2021/04/27 03:54:32;;;;;;;8.13;4.47;;;;;;;4.72;50.00;95693.03;4998335;28;20089;-64
2021/04/27 03:56:57;;;;;;;14.52;4.60;;;;;;;4.76;49.91;95696.63;4998620;28;20041;-61
2021/04/27 03:59:23;;;;;;;9.50;4.88;;;;;;;4.73;49.95;95693.81;4994108;28;20041;-64
2021/04/27 04:01:48;;;;;;;10.02;4.75;;;;;;;4.62;50.07;95682.72;4998430;28;20141;-62
2021/04/27 04:04:13;;;;;;;10.27;5.30;;;;;;;4.64;50.12;95698.66;4991535;28;20108;-64
2021/04/27 04:06:39;;;;;;;6.82;3.95;;;;;;;4.56;50.67;95700.41;5001739;28;20042;-63
2021/04/27 04:09:06;;;;;;;6.72;4.60;;;;;;;4.51;51.04;95703.41;4987074;28;20050;-60
2021/04/27 04:11:33;;;;;;;7.30;4.30;;;;;;;4.50;51.01;95699.09;4998271;28;20592;-63
2021/04/27 04:13:58;;;;;;;10.98;4.30;;;;;;;4.53;50.29;95710.03;4993416;28;20072;-62
2021/04/27 04:16:24;;;;;;;11.48;4.35;;;;;;;4.49;50.83;95705.69;4994317;28;20773;-63
2021/04/27 04:18:49;;;;;;;9.15;4.40;;;;;;;4.45;51.08;95704.78;5001476;28;20148;-62
2021/04/27 04:21:15;;;;;;;12.75;4.57;;;;;;;4.45;51.14;95712.91;4996580;28;20046;-64
2021/04/27 04:23:41;;;;;;;9.55;4.75;;;;;;;4.40;51.30;95714.00;4992255;28;20034;-64
2021/04/27 04:26:07;;;;;;;11.13;4.22;;;;;;;4.44;50.91;95708.66;4996357;28;20046;-60
2021/04/27 04:28:33;;;;;;;11.40;4.40;;;;;;;4.45;51.31;95704.78;4997001;28;20145;-62
2021/04/27 04:30:58;;;;;;;9.90;4.70;;;;;;;4.35;51.46;95712.31;4992282;28;20056;-62
2021/04/27 04:33:24;;;;;;;10.68;4.55;;;;;;;4.34;51.16;95712.66;4992063;28;20136;-62
2021/04/27 04:35:49;;;;;;;11.38;4.15;;;;;;;4.35;51.45;95704.19;4997757;28;20065;-61
2021/04/27 04:38:17;;;;;;;13.63;5.40;;;;;;;4.38;51.33;95711.63;4987008;28;20133;-60
2021/04/27 04:40:43;;;;;;;9.50;5.10;;;;;;;4.37;51.46;95731.72;4992614;28;20042;-59
2021/04/27 04:43:08;;;;;;;6.38;3.83;;;;;;;4.44;51.27;95725.69;4994987;28;20048;-60
2021/04/27 04:45:33;;;;;;;9.70;4.28;;;;;;;4.43;51.09;95732.28;5000772;28;20132;-63
2021/04/27 04:47:59;;;;;;;8.38;4.13;;;;;;;4.36;51.67;95727.44;5003725;28;20069;-61
2021/04/27 04:50:24;;;;;;;8.18;3.95;;;;;;;4.39;52.01;95737.59;5006234;28;20854;-59
2021/04/27 04:52:49;;;;;;;9.30;4.10;;;;;;;4.46;51.93;95736.97;5024433;28;20045;-61
2021/04/27 04:55:16;;;;;;;7.85;4.85;;;;;;;4.25;52.23;95733.72;5002937;28;20058;-60
2021/04/27 04:57:42;;;;;;;6.68;4.13;;;;;;;4.30;52.65;95734.25;5003854;28;20038;-60
2021/04/27 05:00:11;;;;;;;8.63;4.70;;;;;;;4.28;52.08;95725.69;4998031;28;20135;-60
2021/04/27 05:02:38;;;;;;;8.15;4.38;;;;;;;4.33;52.21;95738.22;5006376;28;20392;-61
2021/04/27 05:05:05;;;;;;;10.05;4.40;;;;;;;4.36;52.04;95735.59;4998218;28;20043;-63
2021/04/27 05:07:32;;;;;;;12.30;4.15;;;;;;;4.39;52.87;95732.19;5003109;28;20065;-63
2021/04/27 05:09:58;;;;;;;6.18;4.35;;;;;;;4.80;50.98;95726.53;5007842;28;20041;-61
2021/04/27 05:12:23;;;;;;;6.43;3.85;;;;;;;5.21;50.45;95729.00;5002802;28;20647;-62
2021/04/27 05:14:49;;;;;;;10.77;4.18;;;;;;;5.08;50.21;95731.03;5006486;28;20046;-62
2021/04/27 05:17:16;;;;;;;10.18;4.88;;;;;;;5.15;50.25;95728.50;5002181;28;20041;-61
2021/04/27 05:19:41;;;;;;;8.30;4.25;;;;;;;5.27;50.24;95728.34;5005855;28;20088;-60
2021/04/27 05:22:08;;;;;;;8.90;4.22;;;;;;;5.16;50.38;95732.75;4992030;28;20066;-61
2021/04/27 05:24:36;;;;;;;8.20;3.78;;;;;;;5.21;50.13;95737.13;4993796;28;20053;-62
2021/04/27 05:27:01;;;;;;;9.60;4.53;;;;;;;5.50;49.68;95731.13;5001497;28;20038;-63
2021/04/27 05:29:27;;;;;;;7.97;3.75;;;;;;;5.96;48.92;95735.94;5002256;28;20046;-63
2021/04/27 05:31:52;;;;;;;8.93;4.03;;;;;;;5.85;48.70;95733.00;5006252;28;20061;-64
2021/04/27 05:34:20;;;;;;;6.15;3.92;;;;;;;5.83;48.61;95739.94;5002077;28;20046;-63
2021/04/27 05:36:46;;;;;;;7.63;3.90;;;;;;;6.09;48.37;95744.72;5005212;28;20461;-64
2021/04/27 05:39:12;;;;;;;13.75;3.67;;;;;;;5.97;47.85;95732.06;4989849;28;20141;-62
2021/04/27 05:41:38;;;;;;;8.20;4.45;;;;;;;6.39;47.43;95742.16;5004902;28;20137;-62
2021/04/27 05:44:04;;;;;;;9.02;3.92;;;;;;;6.63;46.64;95746.44;5004065;28;20125;-60
2021/04/27 05:46:29;;;;;;;7.35;4.18;;;;;;;6.93;46.69;95734.81;5007096;28;20042;-63
2021/04/27 05:48:55;;;;;;;8.02;4.03;;;;;;;6.72;46.79;95735.28;5007525;28;20045;-62
2021/04/27 05:51:20;;;;;;;11.30;4.13;;;;;;;7.27;45.69;95743.09;5002481;28;20034;-63
2021/04/27 05:53:45;;;;;;;7.20;3.97;;;;;;;7.60;44.82;95752.47;5006254;28;20081;-63
2021/04/27 05:56:11;;;;;;;7.20;3.95;;;;;;;7.21;46.22;95742.63;5000206;28;20460;-61
2021/04/27 05:58:36;;;;;;;8.23;4.07;;;;;;;7.57;43.95;95748.53;5003262;28;20516;-62
2021/04/27 06:01:03;;;;;;;13.52;4.00;;;;;;;7.34;44.83;95745.13;4996755;28;20580;-60
2021/04/27 06:03:28;;;;;;;9.75;4.05;;;;;;;7.64;44.56;95748.63;4997629;28;20052;-61
2021/04/27 06:05:53;;;;;;;8.13;3.70;;;;;;;7.56;44.02;95735.28;5006117;28;20136;-61
2021/04/27 06:08:19;;;;;;;6.30;3.60;;;;;;;8.45;43.42;95743.69;4998377;28;20052;-61
2021/04/27 06:10:44;;;;;;;7.72;3.88;;;;;;;9.25;41.36;95742.34;4994659;28;20042;-61
2021/04/27 06:13:10;;;;;;;7.63;3.63;;;;;;;8.94;41.18;95747.97;4997551;28;20042;-61
2021/04/27 06:15:35;;;;;;;7.97;4.95;;;;;;;7.85;43.17;95750.06;5011835;28;20810;-62
2021/04/27 06:18:01;;;;;;;7.00;3.72;;;;;;;9.27;40.62;95751.69;5001950;28;20424;-60
2021/04/27 06:20:26;;;;;;;8.80;4.03;;;;;;;9.22;40.74;95746.63;5005769;28;20389;-63
2021/04/27 06:22:52;;;;;;;12.57;3.63;;;;;;;11.34;37.48;95749.81;5002872;28;20113;-59
2021/04/27 06:25:17;;;;;;;9.15;5.43;;;;;;;9.64;40.27;95752.69;5001111;28;20050;-61
2021/04/27 06:27:42;;;;;;;8.65;4.18;;;;;;;9.86;39.65;95748.88;4998964;28;20046;-62
2021/04/27 06:30:10;;;;;;;7.32;3.70;;;;;;;9.94;38.89;95755.19;4997311;28;20562;-60
2021/04/27 06:32:35;;;;;;;15.70;4.55;;;;;;;11.05;38.11;95740.88;4999089;28;20042;-61
2021/04/27 06:35:02;;;;;;;8.70;3.65;;;;;;;10.63;37.80;95750.66;5002083;28;20092;-61
2021/04/27 06:37:28;;;;;;;9.80;4.20;;;;;;;10.20;38.77;95745.84;5023005;28;20041;-62
2021/04/27 06:39:53;;;;;;;8.77;4.18;;;;;;;10.11;39.05;95739.97;5003765;28;20045;-62
2021/04/27 06:42:19;;;;;;;11.27;4.43;;;;;;;9.94;39.43;95758.69;5010612;28;20069;-62
2021/04/27 06:44:44;;;;;;;7.78;4.43;;;;;;;8.61;42.14;95754.34;5019976;28;20056;-62
2021/04/27 06:47:10;;;;;;;11.93;4.75;;;;;;;8.76;42.56;95753.31;5016688;28;20074;-62
2021/04/27 06:49:36;;;;;;;10.07;4.80;;;;;;;8.80;41.79;95753.34;5022572;28;20442;-62
2021/04/27 06:52:04;;;;;;;12.27;4.60;;;;;;;9.02;41.87;95754.31;5021258;28;20548;-61
2021/04/27 06:54:30;;;;;;;12.00;6.80;;;;;;;9.00;41.61;95748.41;5015346;28;20056;-63
2021/04/27 06:56:55;;;;;;;9.90;4.63;;;;;;;9.15;42.08;95750.09;5023637;28;20037;-63
2021/04/27 06:59:21;;;;;;;9.75;5.03;;;;;;;9.23;42.38;95747.41;5016938;28;20048;-61
2021/04/27 07:01:48;;;;;;;10.75;5.50;;;;;;;9.71;41.42;95747.28;5015760;28;20496;-60
2021/04/27 07:04:13;;;;;;;9.82;4.22;;;;;;;9.83;40.51;95744.19;5015954;28;20528;-63
2021/04/27 07:06:39;;;;;;;8.25;4.28;;;;;;;10.90;38.84;95742.84;5017718;28;20056;-63
2021/04/27 07:09:04;;;;;;;7.07;4.10;;;;;;;10.28;39.66;95757.59;5008391;28;20038;-61
2021/04/27 07:11:31;;;;;;;8.00;4.78;;;;;;;9.94;40.43;95750.47;5022862;28;20124;-62
2021/04/27 07:13:59;;;;;;;13.82;4.70;;;;;;;9.12;41.14;95739.91;5021133;28;20052;-63
2021/04/27 07:16:25;;;;;;;8.02;4.30;;;;;;;9.68;42.26;95740.59;5016447;28;20073;-61
2021/04/27 07:18:51;;;;;;;10.65;5.15;;;;;;;9.15;41.69;95747.34;5020753;28;20084;-61
2021/04/27 07:21:19;;;;;;;7.88;4.97;;;;;;;10.36;40.64;95742.81;5016919;28;20041;-62
2021/04/27 07:23:45;;;;;;;7.15;4.30;;;;;;;10.82;38.48;95744.00;5020505;28;20038;-62
2021/04/27 07:26:10;;;;;;;15.90;6.93;;;;;;;9.79;40.89;95746.13;5010336;28;20107;-61
2021/04/27 07:28:35;;;;;;;20.63;11.98;;;;;;;11.00;38.71;95733.03;5022260;28;20045;-62
2021/04/27 07:31:01;;;;;;;13.77;7.97;;;;;;;11.38;38.37;95736.91;5021522;28;20044;-61
2021/04/27 07:33:27;;;;;;;14.23;4.55;;;;;;;11.47;38.10;95740.03;5016786;28;20045;-63
2021/04/27 07:35:52;;;;;;;9.75;4.93;;;;;;;10.44;40.12;95740.84;5022630;28;20083;-63
2021/04/27 07:38:18;;;;;;;8.45;4.72;;;;;;;10.21;40.63;95733.75;5016785;28;20551;-63
2021/04/27 07:40:43;;;;;;;11.10;4.72;;;;;;;12.57;36.99;95742.66;5018728;28;20049;-63
2021/04/27 07:43:09;;;;;;;9.27;4.50;;;;;;;12.75;35.48;95737.06;5009442;28;20403;-60
2021/04/27 07:45:35;;;;;;;9.55;4.78;;;;;;;13.13;34.84;95736.34;5019623;28;20055;-61
2021/04/27 07:48:03;;;;;;;6.60;4.10;;;;;;;11.30;39.07;95743.56;5018749;28;20041;-64
2021/04/27 07:50:29;;;;;;;12.27;4.85;;;;;;;12.83;35.85;95740.50;5015080;28;20056;-63
2021/04/27 07:52:56;;;;;;;17.67;6.43;;;;;;;12.75;35.83;95750.78;5000500;28;20408;-63
2021/04/27 07:55:21;;;;;;;36.15;6.20;;;;;;;11.98;36.91;95748.09;5012658;28;20053;-63
2021/04/27 07:57:47;;;;;;;7.40;4.35;;;;;;;12.03;36.97;95744.94;5021845;28;20041;-64
2021/04/27 08:00:13;;;;;;;30.17;5.30;;;;;;;12.35;37.24;95744.78;5005750;28;20073;-61
2021/04/27 08:02:39;;;;;;;7.10;4.50;;;;;;;14.73;32.18;95729.34;4999659;28;20046;-64
2021/04/27 08:05:06;;;;;;;13.25;5.22;;;;;;;15.16;31.29;95734.16;4996959;28;20049;-60
2021/04/27 08:07:31;;;;;;;9.77;4.22;;;;;;;14.12;34.58;95730.94;5011842;28;20197;-62
2021/04/27 08:09:57;;;;;;;19.55;9.32;;;;;;;14.41;33.83;95730.56;5001277;28;20533;-62
2021/04/27 08:12:23;;;;;;;12.55;5.95;;;;;;;12.65;36.00;95726.91;4995546;28;20108;-61
2021/04/27 08:14:48;;;;;;;14.50;5.60;;;;;;;11.89;37.84;95728.53;4992498;28;20061;-63
2021/04/27 08:17:14;;;;;;;12.32;5.68;;;;;;;12.53;35.52;95722.69;4996016;28;20128;-62
2021/04/27 08:19:39;;;;;;;15.13;6.28;;;;;;;12.71;35.71;95730.00;5001697;28;20108;-63
2021/04/27 08:22:06;;;;;;;24.00;6.70;;;;;;;13.68;34.16;95726.38;4996068;28;20136;-63
2021/04/27 08:24:36;;;;;;;11.25;5.97;;;;;;;13.03;34.87;95716.00;4999854;28;20504;-63
2021/04/27 08:27:02;;;;;;;8.77;5.55;;;;;;;13.42;35.32;95723.13;5000854;28;20050;-63
2021/04/27 08:29:28;;;;;;;9.85;5.28;;;;;;;14.79;32.95;95715.88;4998498;28;20053;-62
2021/04/27 08:31:54;;;;;;;14.13;6.85;;;;;;;16.33;30.20;95710.22;4998419;28;20049;-63
2021/04/27 08:34:19;;;;;;;9.23;5.63;;;;;;;18.25;27.26;95706.94;5001783;28;20599;-64
2021/04/27 08:36:45;;;;;;;12.38;5.75;;;;;;;15.94;31.64;95706.31;5002445;28;20041;-62
2021/04/27 08:39:10;;;;;;;11.48;5.50;;;;;;;14.65;33.32;95709.38;4990293;28;20049;-63
2021/04/27 08:41:37;;;;;;;10.35;5.40;;;;;;;14.50;33.09;95711.53;4996982;28;20072;-62
2021/04/27 08:44:04;;;;;;;8.95;5.50;;;;;;;16.38;29.71;95714.44;4999136;28;20030;-63
2021/04/27 08:46:30;;;;;;;7.63;4.57;;;;;;;17.98;27.92;95705.34;4999762;28;20042;-63
2021/04/27 08:48:56;;;;;;;9.52;5.85;;;;;;;15.89;29.55;95706.81;5001357;28;20053;-63
2021/04/27 08:51:22;;;;;;;9.55;4.82;;;;;;;18.17;27.09;95700.84;4997197;28;20070;-63
2021/04/27 08:53:48;;;;;;;13.15;6.75;;;;;;;15.30;31.97;95705.53;4999432;28;20050;-64
2021/04/27 08:56:14;;;;;;;12.27;6.13;;;;;;;12.85;35.11;95718.91;4992725;28;20501;-64
2021/04/27 08:58:40;;;;;;;9.73;5.10;;;;;;;15.41;31.92;95706.13;5004585;28;20041;-64
2021/04/27 09:01:06;;;;;;;9.93;5.93;;;;;;;16.96;28.96;95700.88;4997108;28;20141;-63
2021/04/27 09:03:43;;;;;;;7.53;4.78;;;;;;;16.16;30.28;95703.88;5001300;28;20042;-63
2021/04/27 09:06:17;;;;;;;12.70;5.40;;;;;;;15.00;34.08;95698.19;4995388;28;20042;-63
2021/04/27 09:08:43;;;;;;;9.38;4.85;;;;;;;14.29;34.31;95709.09;5006198;28;20045;-63
2021/04/27 09:11:35;;;;;;;10.52;6.25;;;;;;;14.81;32.38;95705.19;4998966;28;20084;-62
2021/04/27 09:14:20;;;;;;;9.15;5.60;;;;;;;15.67;32.50;95695.41;4993313;28;20038;-63
2021/04/27 09:16:54;;;;;;;15.75;4.88;;;;;;;17.89;30.47;95694.88;4998137;28;20050;-64
2021/04/27 09:19:42;;;;;;;9.88;5.10;;;;;;;18.10;30.91;95696.28;4993613;28;20037;-61
2021/04/27 09:22:22;;;;;;;12.38;4.80;;;;;;;17.29;31.29;95698.06;4988260;28;20053;-64
2021/04/27 09:25:03;;;;;;;13.48;5.28;;;;;;;17.05;32.21;95703.06;5009485;28;20038;-64
2021/04/27 09:27:33;;;;;;;12.43;4.97;;;;;;;17.00;32.06;95692.50;5004215;28;20452;-63
2021/04/27 09:30:09;;;;;;;;;;;;;;;17.76;30.89;95694.06;5000693;28;20503;-62
2021/04/27 09:32:38;;;;;;;8.77;4.97;;;;;;;17.93;30.41;95701.13;4999330;28;19956;-62
2021/04/27 09:35:24;;;;;;;12.98;5.57;;;;;;;17.34;31.11;95700.31;4987225;28;20133;-61
2021/04/27 09:38:16;;;;;;;10.60;6.55;;;;;;;16.86;30.91;95701.16;5000119;28;20497;-61
2021/04/27 09:40:47;;;;;;;9.88;4.53;;;;;;;17.86;30.69;95695.00;4983886;28;20405;-61
2021/04/27 09:43:15;;;;;;;10.95;5.60;;;;;;;18.13;30.13;95694.59;4978952;28;20050;-64
2021/04/27 09:45:43;;;;;;;8.75;5.05;;;;;;;17.72;30.81;95680.31;4991821;28;20173;-63
2021/04/27 09:48:09;;;;;;;17.35;5.47;;;;;;;18.10;30.63;95679.66;4993033;28;20493;-62
2021/04/27 09:50:35;;;;;;;12.32;5.40;;;;;;;18.05;30.42;95687.72;5004639;28;20112;-62
2021/04/27 09:53:01;;;;;;;11.02;5.07;;;;;;;17.84;30.33;95684.31;5003321;28;20045;-62
2021/04/27 09:55:32;;;;;;;14.25;5.43;;;;;;;18.15;29.96;95668.03;5000202;28;20440;-61
2021/04/27 09:57:58;;;;;;;9.77;5.90;;;;;;;18.23;29.82;95670.56;5003652;28;20046;-63
2021/04/27 10:00:31;;;;;;;15.95;5.20;;;;;;;18.11;30.05;95663.78;4998129;28;20042;-63
2021/04/27 10:03:04;;;;;;;9.55;4.95;;;;;;;18.49;29.68;95666.59;4995081;28;20527;-63
2021/04/27 10:05:30;;;;;;;12.52;5.75;;;;;;;18.27;29.46;95666.47;5002184;28;20046;-59
2021/04/27 10:08:00;;;;;;;10.40;5.50;;;;;;;18.86;28.86;95667.03;5011454;28;20045;-63
2021/04/27 10:10:31;;;;;;;12.52;5.72;;;;;;;18.88;29.16;95664.56;4999942;28;20052;-62
2021/04/27 10:13:01;;;;;;;9.43;5.45;;;;;;;17.27;30.74;95677.56;5002656;28;20042;-63
2021/04/27 10:15:28;;;;;;;11.85;5.80;;;;;;;17.10;32.06;95674.06;4996741;28;20501;-63
2021/04/27 10:17:55;;;;;;;9.77;5.88;;;;;;;17.94;30.10;95668.66;5003571;28;20061;-64
2021/04/27 10:20:21;;;;;;;11.75;6.38;;;;;;;18.34;30.84;95657.16;5004940;28;20317;-63
2021/04/27 10:22:49;;;;;;;11.85;6.05;;;;;;;18.67;29.41;95654.94;5003372;28;20136;-63
2021/04/27 10:25:18;;;;;;;10.40;6.18;;;;;;;18.53;28.81;95652.63;4997932;28;20421;-61
2021/04/27 10:27:45;;;;;;;12.25;6.25;;;;;;;18.52;28.23;95651.06;5002388;28;20524;-62
2021/04/27 10:30:17;;;;;;;9.27;6.03;;;;;;;17.60;30.08;95641.50;4994392;28;20072;-61
2021/04/27 10:32:44;;;;;;;12.25;6.63;;;;;;;17.98;30.86;95649.94;5002151;28;20034;-62
2021/04/27 10:35:12;;;;;;;16.10;7.47;;;;;;;18.33;29.21;95645.31;4991868;28;20038;-62
2021/04/27 10:38:06;;;;;;;13.98;6.47;;;;;;;18.85;29.54;95643.28;5002206;28;20085;-62
2021/04/27 10:40:44;;;;;;;11.20;6.63;;;;;;;18.45;29.31;95637.41;4991307;28;20149;-63
2021/04/27 10:43:22;;;;;;;11.57;6.47;;;;;;;18.90;28.52;95628.06;4993969;28;20034;-63
2021/04/27 10:45:47;;;;;;;11.55;6.88;;;;;;;18.06;29.95;95634.66;5001165;28;20030;-63
2021/04/27 10:48:44;;;;;;;13.30;6.78;;;;;;;18.49;29.18;95632.53;4996710;28;20080;-62
2021/04/27 10:51:19;;;;;;;15.80;7.25;;;;;;;17.72;30.90;95633.22;4994281;28;20049;-61
2021/04/27 10:54:06;;;;;;;16.05;7.20;;;;;;;17.14;31.37;95633.25;5002957;28;20384;-64
2021/04/27 10:56:52;;;;;;;12.52;7.25;;;;;;;17.67;30.56;95628.25;5001577;28;20169;-64
2021/04/27 10:59:24;;;;;;;11.43;6.78;;;;;;;17.32;31.76;95621.69;4992973;28;20104;-61
2021/04/27 11:02:17;;;;;;;14.90;6.88;;;;;;;17.28;31.80;95615.50;5001735;28;20056;-62
2021/04/27 11:04:47;;;;;;;15.38;7.55;;;;;;;17.04;31.95;95621.25;4993109;28;20086;-61
2021/04/27 11:07:24;;;;;;;12.20;6.80;;;;;;;17.05;31.94;95613.72;5007493;28;20057;-64
2021/04/27 11:09:58;;;;;;;17.85;8.45;;;;;;;17.36;32.19;95616.88;5000946;28;20415;-63
2021/04/27 11:12:33;;;;;;;12.93;7.80;;;;;;;17.05;31.92;95614.53;4996491;28;20905;-63
2021/04/27 11:15:01;;;;;;;12.73;7.78;;;;;;;17.16;32.77;95615.00;4987788;28;20058;-63
2021/04/27 11:17:29;;;;;;;14.70;7.60;;;;;;;16.62;33.59;95608.06;4996466;28;20050;-62
2021/04/27 11:19:54;;;;;;;14.18;8.00;;;;;;;16.91;33.04;95603.84;5001477;28;20050;-61
2021/04/27 11:22:33;;;;;;;14.65;7.25;;;;;;;16.73;32.24;95605.03;4996054;28;20044;-63
2021/04/27 11:25:04;;;;;;;17.90;8.40;;;;;;;16.67;33.10;95614.28;5001862;28;20033;-61
2021/04/27 11:27:33;;;;;;;12.77;8.23;;;;;;;16.61;33.98;95605.72;4999751;28;20500;-63
2021/04/27 11:30:11;;;;;;;17.58;9.88;;;;;;;16.96;32.99;95603.28;5001376;28;20042;-60
2021/04/27 11:32:42;;;;;;;16.35;7.68;;;;;;;16.96;31.96;95601.31;4992804;28;20406;-59
2021/04/27 11:35:10;;;;;;;13.27;8.43;;;;;;;16.70;32.58;95596.84;4995966;28;20045;-61
2021/04/27 11:37:59;;;;;;;15.63;8.05;;;;;;;17.15;32.20;95602.38;5003418;28;20041;-62